Time;durP1;ratioP1;P1;durP2;ratioP2;P2;SDS_P1;SDS_P2;PMS_P1;PMS_P2;Temp;Humidity;BMP_temperature;BMP_pressure;BME280_temperature;BME280_humidity;BME280_pressure;Samples;Min_cycle;Max_cycle;Signal;HPM_P1;HPM_P2
2021/06/12 00:01:15;;;;;;;11.10;10.30;;;;;;;21.46;75.38;96635.25;4957527;28;20185;-70
2021/06/12 00:03:41;;;;;;;10.17;9.47;;;;;;;21.44;75.60;96629.38;4960370;28;20610;-74
2021/06/12 00:06:07;;;;;;;11.70;10.90;;;;;;;21.41;75.85;96629.97;4987722;28;20189;-70
2021/06/12 00:08:32;;;;;;;12.13;11.13;;;;;;;21.41;75.65;96633.41;4994104;28;20177;-75
2021/06/12 00:11:00;;;;;;;12.47;11.10;;;;;;;21.42;75.96;96629.66;4994152;28;20180;-75
2021/06/12 00:13:26;;;;;;;11.77;10.90;;;;;;;21.37;76.20;96624.41;4976252;28;20567;-70
2021/06/12 00:15:52;;;;;;;11.87;11.03;;;;;;;21.34;76.42;96630.28;4994152;28;20413;-74
2021/06/12 00:18:17;;;;;;;12.43;11.53;;;;;;;21.34;76.47;96624.16;4980688;28;20209;-75
2021/06/12 00:20:43;;;;;;;12.20;11.00;;;;;;;21.22;77.02;96624.56;4974909;28;20578;-74
2021/06/12 00:23:08;;;;;;;12.00;11.20;;;;;;;21.23;77.04;96625.38;4974067;28;20205;-73
2021/06/12 00:25:34;;;;;;;11.63;10.73;;;;;;;21.17;77.15;96618.50;4974545;28;20581;-70
2021/06/12 00:28:01;;;;;;;11.27;10.50;;;;;;;21.23;77.01;96628.06;4974546;28;20170;-75
2021/06/12 00:30:28;;;;;;;11.80;11.00;;;;;;;21.20;77.02;96626.75;4974647;28;20166;-74
2021/06/12 00:32:54;;;;;;;11.37;10.60;;;;;;;21.19;77.09;96627.84;4981661;28;20519;-75
2021/06/12 00:35:20;;;;;;;11.30;10.57;;;;;;;21.19;77.37;96624.34;4993666;28;20493;-74
2021/06/12 00:37:46;;;;;;;12.23;11.43;;;;;;;21.12;77.26;96624.72;4993757;28;20201;-70
2021/06/12 00:40:14;;;;;;;12.17;11.07;;;;;;;21.14;76.85;96619.06;4994067;28;20471;-70
2021/06/12 00:42:40;;;;;;;12.07;11.20;;;;;;;21.15;77.29;96618.78;4996066;28;20564;-70
2021/06/12 00:45:08;;;;;;;12.57;11.60;;;;;;;21.04;75.61;96611.97;4997822;28;20420;-74
2021/06/12 00:47:33;;;;;;;16.40;12.47;;;;;;;21.04;75.52;96606.63;4997101;28;20903;-74
2021/06/12 00:49:58;;;;;;;12.83;11.93;;;;;;;21.04;74.87;96605.81;4997978;28;20467;-69
2021/06/12 00:52:24;;;;;;;13.73;12.53;;;;;;;21.11;74.87;96601.72;4980483;28;20178;-69
2021/06/12 00:54:49;;;;;;;12.83;11.93;;;;;;;21.17;74.27;96611.28;4989047;28;20196;-74
2021/06/12 00:57:15;;;;;;;12.50;11.70;;;;;;;21.28;74.01;96609.28;4997559;28;20627;-74
2021/06/12 00:59:41;;;;;;;12.40;11.20;;;;;;;21.23;73.43;96612.00;4997718;28;20268;-74
2021/06/12 01:02:06;;;;;;;12.40;11.37;;;;;;;21.15;73.29;96605.41;4997226;28;20173;-74
2021/06/12 01:04:31;;;;;;;12.53;11.50;;;;;;;21.13;73.41;96601.44;4997437;28;20678;-70
2021/06/12 01:06:57;;;;;;;11.93;11.03;;;;;;;21.22;73.27;96608.53;4997316;28;20185;-70
2021/06/12 01:09:23;;;;;;;12.00;10.93;;;;;;;21.30;73.13;96596.41;4989184;28;20579;-74
2021/06/12 01:11:54;;;;;;;12.40;11.50;;;;;;;21.37;73.68;96596.84;4992420;28;20185;-69
2021/06/12 01:14:22;;;;;;;11.83;11.03;;;;;;;21.39;73.29;96590.16;4978872;28;20252;-74
2021/06/12 01:17:06;;;;;;;12.67;11.77;;;;;;;21.37;73.10;96586.97;4977769;28;20472;-70
2021/06/12 01:19:37;;;;;;;12.63;11.63;;;;;;;21.35;72.73;96583.78;4977654;28;20832;-70
2021/06/12 01:22:08;;;;;;;12.33;11.33;;;;;;;21.18;72.71;96596.00;4977381;28;20904;-70
2021/06/12 01:24:48;;;;;;;12.70;11.80;;;;;;;21.10;73.17;96592.13;4977635;28;20440;-74
2021/06/12 01:27:13;;;;;;;12.27;11.37;;;;;;;21.05;73.57;96589.50;4977745;28;20480;-74
2021/06/12 01:29:57;;;;;;;12.00;11.10;;;;;;;21.17;73.00;96586.41;4984200;28;20841;-74
2021/06/12 01:32:26;;;;;;;11.03;10.33;;;;;;;21.25;72.85;96588.47;4996658;28;20205;-74
2021/06/12 01:34:55;;;;;;;11.53;10.63;;;;;;;21.31;73.12;96584.63;4996957;28;20440;-70
2021/06/12 01:37:22;;;;;;;12.20;11.23;;;;;;;21.30;73.15;96589.19;4997069;28;20509;-69
2021/06/12 01:39:50;;;;;;;10.87;10.07;;;;;;;21.33;73.21;96591.28;4997129;28;20460;-74
2021/06/12 01:42:16;;;;;;;11.30;10.50;;;;;;;21.32;73.04;96588.91;4996430;28;20412;-74
2021/06/12 01:44:42;;;;;;;10.70;10.00;;;;;;;21.27;73.12;96584.41;4996162;28;20993;-74
2021/06/12 01:47:09;;;;;;;11.40;10.60;;;;;;;21.25;73.23;96588.47;4969311;28;20436;-69
2021/06/12 01:49:37;;;;;;;11.30;10.60;;;;;;;21.23;73.39;96585.28;4996675;28;20763;-75
2021/06/12 01:52:03;;;;;;;11.50;10.80;;;;;;;21.18;73.48;96582.66;4996378;28;20500;-69
2021/06/12 01:54:30;;;;;;;12.00;11.20;;;;;;;21.16;74.12;96590.97;4996359;28;20424;-75
2021/06/12 01:56:57;;;;;;;12.43;11.43;;;;;;;21.11;73.99;96591.03;4996462;28;20409;-70
2021/06/12 01:59:24;;;;;;;11.33;10.53;;;;;;;21.10;73.78;96585.97;4991709;28;20544;-75
2021/06/12 02:01:52;;;;;;;11.87;10.97;;;;;;;21.09;74.30;96579.81;4976630;28;20440;-75
2021/06/12 02:04:18;;;;;;;11.50;10.70;;;;;;;21.13;74.36;96577.38;4976942;28;20430;-69
2021/06/12 02:06:45;;;;;;;12.60;11.47;;;;;;;21.14;74.43;96581.66;4977021;28;20417;-69
2021/06/12 02:09:11;;;;;;;11.77;10.97;;;;;;;21.10;75.05;96588.66;4977014;28;20409;-75
2021/06/12 02:11:38;;;;;;;11.70;10.87;;;;;;;21.10;75.40;96580.63;4976429;28;20405;-74
2021/06/12 02:14:06;;;;;;;11.37;10.53;;;;;;;21.10;75.17;96586.78;4980132;28;20440;-75
2021/06/12 02:16:32;;;;;;;11.60;10.80;;;;;;;21.08;75.22;96596.16;4963511;28;20429;-75
2021/06/12 02:18:58;;;;;;;12.53;11.67;;;;;;;21.12;74.71;96591.84;4995136;28;20470;-69
2021/06/12 02:21:25;;;;;;;12.40;11.40;;;;;;;21.05;74.30;96586.03;4996246;28;20432;-72
2021/06/12 02:23:53;;;;;;;12.43;11.53;;;;;;;20.91;74.48;96591.25;4995905;28;20443;-74
2021/06/12 02:26:23;;;;;;;12.07;11.17;;;;;;;20.81;75.15;96583.34;4996213;28;20930;-75
2021/06/12 02:28:50;;;;;;;12.33;11.30;;;;;;;20.78;75.19;96586.56;4996186;28;20423;-75
2021/06/12 02:31:21;;;;;;;12.27;11.40;;;;;;;20.81;75.24;96585.22;4994215;28;20512;-69
2021/06/12 02:33:48;;;;;;;13.10;12.13;;;;;;;20.79;75.60;96574.03;4995506;28;20428;-69
2021/06/12 02:36:14;;;;;;;11.63;10.83;;;;;;;20.75;75.49;96575.66;4996048;28;20432;-75
2021/06/12 02:38:39;;;;;;;12.30;11.50;;;;;;;20.76;74.86;96572.72;4995629;28;20531;-75
2021/06/12 02:41:05;;;;;;;12.67;11.77;;;;;;;20.75;75.51;96573.78;4995816;28;20899;-69
2021/06/12 02:43:30;;;;;;;12.53;11.63;;;;;;;20.76;75.54;96574.59;4995358;28;20245;-75
2021/06/12 02:45:56;;;;;;;11.93;11.03;;;;;;;20.77;75.76;96581.53;4979490;28;20178;-75
2021/06/12 02:48:27;;;;;;;12.37;11.23;;;;;;;20.78;76.11;96581.22;4976235;28;20221;-75
2021/06/12 02:50:55;;;;;;;13.07;12.07;;;;;;;20.70;75.25;96579.19;4976252;28;20182;-75
2021/06/12 02:53:25;;;;;;;12.30;11.50;;;;;;;20.69;75.33;96585.59;4975687;28;20437;-70
2021/06/12 02:55:55;;;;;;;12.70;11.70;;;;;;;20.64;75.36;96591.00;4976077;28;20412;-75
2021/06/12 02:58:22;;;;;;;12.83;11.73;;;;;;;20.64;75.62;96590.22;4958564;28;20835;-69
2021/06/12 03:00:49;;;;;;;12.33;11.53;;;;;;;20.62;75.74;96589.72;4977817;28;20421;-75
2021/06/12 03:03:16;;;;;;;11.50;10.60;;;;;;;20.58;75.90;96597.50;4975475;28;20792;-75
2021/06/12 03:05:45;;;;;;;12.47;11.47;;;;;;;20.45;75.53;96593.59;4993251;28;20438;-70
2021/06/12 03:08:14;;;;;;;12.47;11.37;;;;;;;20.30;76.48;96593.75;4995429;28;20401;-69
2021/06/12 03:10:40;;;;;;;12.80;11.80;;;;;;;20.24;76.73;96600.22;4995287;28;20412;-75
2021/06/12 03:13:10;;;;;;;12.70;11.70;;;;;;;20.23;77.00;96598.63;4994808;28;20435;-75
2021/06/12 03:15:37;;;;;;;12.87;11.87;;;;;;;20.13;77.40;96597.88;4995315;28;20817;-70
2021/06/12 03:18:04;;;;;;;12.90;11.90;;;;;;;20.15;77.57;96598.38;4994937;28;20460;-75
2021/06/12 03:20:29;;;;;;;13.10;12.10;;;;;;;20.15;78.23;96603.72;4976317;28;20772;-74
2021/06/12 03:23:01;;;;;;;13.80;12.80;;;;;;;20.12;78.30;96602.44;4975129;28;20500;-74
2021/06/12 03:25:27;;;;;;;13.73;12.70;;;;;;;20.16;78.30;96602.66;4975636;28;20174;-69
2021/06/12 03:27:53;;;;;;;12.67;11.67;;;;;;;20.17;78.40;96596.28;4975411;28;20433;-75
2021/06/12 03:30:18;;;;;;;12.83;11.93;;;;;;;20.16;78.38;96603.47;4976309;28;20798;-74
2021/06/12 03:32:45;;;;;;;12.60;11.73;;;;;;;20.20;78.09;96598.41;4986698;28;20184;-74
2021/06/12 03:35:11;;;;;;;12.30;11.40;;;;;;;20.20;78.04;96604.50;4994142;28;20181;-70
2021/06/12 03:37:38;;;;;;;13.30;12.30;;;;;;;20.17;78.33;96588.25;4977134;28;20875;-70
2021/06/12 03:40:05;;;;;;;11.73;10.93;;;;;;;20.13;78.21;96596.00;4994623;28;20417;-69
2021/06/12 03:42:30;;;;;;;13.17;12.20;;;;;;;20.14;78.48;96602.94;4994174;28;20420;-74
2021/06/12 03:44:58;;;;;;;12.83;11.73;;;;;;;20.11;78.73;96598.16;4994694;28;20439;-69
2021/06/12 03:47:24;;;;;;;12.97;11.87;;;;;;;20.11;78.79;96606.16;4994468;28;20173;-75
2021/06/12 03:49:51;;;;;;;12.23;11.43;;;;;;;20.16;78.81;96610.66;4979491;28;20433;-75
2021/06/12 03:52:22;;;;;;;12.83;11.90;;;;;;;20.14;78.86;96604.81;4957338;28;20978;-75
2021/06/12 03:54:48;;;;;;;13.97;12.87;;;;;;;20.11;79.10;96600.81;4957712;28;20805;-69
2021/06/12 03:57:13;;;;;;;12.97;11.90;;;;;;;20.09;79.20;96610.97;4974931;28;20414;-69
2021/06/12 03:59:39;;;;;;;13.53;12.20;;;;;;;20.07;79.52;96609.69;4974893;28;20182;-74
2021/06/12 04:02:06;;;;;;;12.40;11.50;;;;;;;20.09;78.90;96615.53;4988628;28;20185;-69
2021/06/12 04:04:32;;;;;;;13.07;12.00;;;;;;;20.10;79.06;96606.44;4994343;28;20203;-69
2021/06/12 04:06:57;;;;;;;13.80;12.80;;;;;;;20.09;78.86;96616.31;4994110;28;20881;-74
2021/06/12 04:09:22;;;;;;;13.70;12.60;;;;;;;20.10;78.70;96617.13;4976750;28;20178;-69
2021/06/12 04:11:48;;;;;;;13.30;12.30;;;;;;;20.08;79.15;96612.06;4993855;28;20204;-74
2021/06/12 04:14:13;;;;;;;12.60;11.70;;;;;;;20.09;79.39;96615.53;4994150;28;20197;-74
2021/06/12 04:16:38;;;;;;;12.93;11.93;;;;;;;20.11;79.26;96616.06;4989908;28;20181;-75
2021/06/12 04:19:04;;;;;;;12.33;11.43;;;;;;;20.05;79.28;96617.16;4994022;28;20667;-69
2021/06/12 04:21:29;;;;;;;13.30;12.30;;;;;;;20.08;79.67;96622.75;4993876;28;20220;-75
2021/06/12 04:23:55;;;;;;;14.60;13.27;;;;;;;20.05;79.85;96622.50;4994015;28;20602;-68
2021/06/12 04:26:20;;;;;;;13.60;12.60;;;;;;;20.06;79.76;96619.56;4994131;28;20179;-75
2021/06/12 04:28:46;;;;;;;13.30;12.30;;;;;;;20.10;79.56;96617.91;4993980;28;20165;-69
2021/06/12 04:31:11;;;;;;;13.63;12.60;;;;;;;20.11;79.34;96618.72;4982506;28;20182;-75
2021/06/12 04:33:37;;;;;;;13.63;12.63;;;;;;;20.07;79.46;96618.50;4986560;28;20201;-69
2021/06/12 04:36:03;;;;;;;13.27;12.27;;;;;;;20.06;79.53;96616.06;4993993;28;20177;-69
2021/06/12 04:38:29;;;;;;;13.13;12.13;;;;;;;20.09;79.60;96612.88;4993866;28;20193;-69
2021/06/12 04:40:54;;;;;;;13.47;12.47;;;;;;;20.11;79.74;96618.72;4994070;28;20411;-69
2021/06/12 04:43:20;;;;;;;13.53;12.53;;;;;;;20.12;79.78;96623.78;4993496;28;20201;-74
2021/06/12 04:45:45;;;;;;;12.87;11.97;;;;;;;20.11;79.98;96632.84;4990600;28;20736;-69
2021/06/12 04:48:11;;;;;;;12.70;11.80;;;;;;;20.16;79.73;96630.16;4978894;28;20690;-74
2021/06/12 04:50:38;;;;;;;14.00;12.97;;;;;;;20.20;79.91;96633.88;4993791;28;20185;-69
2021/06/12 04:53:08;;;;;;;12.63;11.73;;;;;;;20.29;79.40;96632.19;4993364;28;20185;-74
2021/06/12 04:55:34;;;;;;;12.60;11.60;;;;;;;20.32;79.20;96614.81;4993899;28;20417;-70
2021/06/12 04:58:01;;;;;;;12.07;11.27;;;;;;;20.40;79.58;96617.69;4993758;28;20456;-69
2021/06/12 05:00:26;;;;;;;12.10;11.20;;;;;;;20.47;79.69;96620.03;4988352;28;20425;-74
2021/06/12 05:02:51;;;;;;;12.30;11.50;;;;;;;20.55;79.29;96615.94;4974036;28;20760;-74
2021/06/12 05:05:17;;;;;;;12.50;11.60;;;;;;;20.61;79.70;96626.31;4974323;28;20236;-74
2021/06/12 05:07:42;;;;;;;11.83;11.03;;;;;;;20.69;80.03;96617.66;4974555;28;20174;-74
2021/06/12 05:10:09;;;;;;;11.60;10.70;;;;;;;20.79;79.89;96630.13;4974405;28;20174;-74
2021/06/12 05:12:36;;;;;;;11.87;10.97;;;;;;;20.83;78.76;96633.81;4973796;28;20174;-70
2021/06/12 05:15:02;;;;;;;11.40;10.60;;;;;;;20.90;78.33;96632.41;4959847;28;20783;-74
2021/06/12 05:17:28;;;;;;;10.60;9.90;;;;;;;21.02;77.84;96624.81;4993442;28;20500;-69
2021/06/12 05:19:55;;;;;;;11.87;10.90;;;;;;;21.16;78.40;96623.03;4975801;28;20179;-74
2021/06/12 05:22:30;;;;;;;11.73;10.93;;;;;;;21.25;78.63;96629.34;4973867;28;20405;-69
2021/06/12 05:24:56;;;;;;;11.27;10.40;;;;;;;21.18;76.58;96631.56;4973965;28;20432;-69
2021/06/12 05:27:23;;;;;;;9.97;9.17;;;;;;;21.20;76.28;96632.09;4974228;28;20417;-70
2021/06/12 05:29:48;;;;;;;10.77;9.97;;;;;;;21.37;75.96;96626.25;4977802;28;20405;-70
2021/06/12 05:32:14;;;;;;;10.57;9.77;;;;;;;21.52;76.27;96631.41;4994711;28;20421;-69
2021/06/12 05:34:40;;;;;;;10.63;9.83;;;;;;;21.65;76.92;96625.34;4977434;28;20189;-69
2021/06/12 05:37:06;;;;;;;11.70;10.70;;;;;;;21.76;77.14;96626.78;4977503;28;20174;-69
2021/06/12 05:39:32;;;;;;;10.90;10.10;;;;;;;21.84;77.65;96628.84;4977344;28;20526;-69
2021/06/12 05:41:57;;;;;;;11.50;10.33;;;;;;;21.93;77.67;96624.44;4977045;28;20182;-69
2021/06/12 05:44:22;;;;;;;10.90;10.20;;;;;;;22.03;77.98;96620.81;4977214;28;20190;-74
2021/06/12 05:46:50;;;;;;;9.57;8.97;;;;;;;21.98;75.46;96628.91;4983790;28;20182;-68
2021/06/12 05:49:16;;;;;;;10.70;10.00;;;;;;;21.95;73.49;96618.78;4986055;28;20166;-69
2021/06/12 05:51:41;;;;;;;9.83;9.03;;;;;;;21.93;72.15;96619.09;4991979;28;20428;-74
2021/06/12 05:54:07;;;;;;;9.73;8.97;;;;;;;21.83;72.70;96624.56;4996583;28;20193;-75
2021/06/12 05:56:32;;;;;;;9.60;8.80;;;;;;;21.99;72.04;96620.59;4996499;28;20176;-69
2021/06/12 05:58:57;;;;;;;9.67;8.97;;;;;;;22.08;72.05;96626.88;4996686;28;20676;-68
2021/06/12 06:01:23;;;;;;;9.97;9.27;;;;;;;22.06;71.54;96629.06;4996559;28;20174;-74
2021/06/12 06:03:48;;;;;;;9.60;8.70;;;;;;;22.23;71.07;96626.63;4996151;28;20663;-67
2021/06/12 06:06:14;;;;;;;9.93;9.13;;;;;;;22.32;70.85;96616.84;4982734;28;20680;-69
2021/06/12 06:08:40;;;;;;;8.90;8.30;;;;;;;22.43;70.16;96615.56;4976943;28;20644;-69
2021/06/12 06:11:05;;;;;;;9.60;8.90;;;;;;;22.28;70.62;96615.03;4976874;28;20555;-75
2021/06/12 06:13:41;;;;;;;9.00;8.40;;;;;;;22.38;70.55;96626.38;4976216;28;20206;-68
2021/06/12 06:16:07;;;;;;;9.50;8.80;;;;;;;22.56;70.01;96610.59;4976998;28;20174;-69
2021/06/12 06:18:34;;;;;;;9.30;8.50;;;;;;;22.68;69.93;96619.75;4976972;28;20533;-74
2021/06/12 06:21:00;;;;;;;9.20;8.40;;;;;;;22.78;69.58;96624.91;4976263;28;20173;-69
2021/06/12 06:23:25;;;;;;;9.70;8.77;;;;;;;22.82;68.68;96627.78;4995708;28;20927;-70
2021/06/12 06:25:51;;;;;;;8.90;8.30;;;;;;;23.01;68.19;96625.81;4996008;28;20572;-75
2021/06/12 06:28:16;;;;;;;8.87;8.17;;;;;;;23.01;68.34;96626.59;4995989;28;20675;-75
2021/06/12 06:30:42;;;;;;;9.27;8.60;;;;;;;23.08;67.78;96626.22;4995937;28;20174;-74
2021/06/12 06:33:07;;;;;;;8.70;8.10;;;;;;;23.04;67.64;96619.84;4986993;28;20198;-68
2021/06/12 06:35:33;;;;;;;8.63;8.03;;;;;;;23.13;68.34;96615.38;4988201;28;20181;-69
2021/06/12 06:37:58;;;;;;;7.90;7.40;;;;;;;23.24;68.93;96620.25;4995778;28;20679;-73
2021/06/12 06:40:24;;;;;;;8.03;7.53;;;;;;;23.28;68.32;96620.44;4995039;28;20208;-75
2021/06/12 06:42:49;;;;;;;8.20;7.70;;;;;;;23.32;67.60;96624.94;4995498;28;20170;-75
2021/06/12 06:45:15;;;;;;;8.87;8.17;;;;;;;23.19;67.57;96631.06;4981371;28;20831;-74
2021/06/12 06:47:40;;;;;;;7.67;7.03;;;;;;;23.25;67.84;96627.19;4958722;28;20192;-69
2021/06/12 06:50:07;;;;;;;8.47;7.87;;;;;;;23.39;67.91;96627.19;4976164;28;20201;-69
2021/06/12 06:52:33;;;;;;;7.70;7.17;;;;;;;23.51;67.79;96632.88;4975312;28;20186;-75
2021/06/12 06:54:58;;;;;;;8.37;7.87;;;;;;;23.52;68.47;96641.72;4975920;28;20938;-68
2021/06/12 06:57:24;;;;;;;8.07;7.47;;;;;;;23.48;68.15;96644.97;4975958;28;20181;-74
2021/06/12 06:59:49;;;;;;;8.20;7.70;;;;;;;23.57;68.26;96639.69;4983193;28;20182;-75
2021/06/12 07:02:15;;;;;;;8.50;8.00;;;;;;;23.63;69.05;96638.50;4977592;28;20197;-75
2021/06/12 07:04:40;;;;;;;8.47;7.87;;;;;;;23.81;69.60;96642.13;4995264;28;20203;-75
2021/06/12 07:07:06;;;;;;;7.10;6.60;;;;;;;23.71;68.38;96639.69;4995179;28;20190;-75
2021/06/12 07:09:32;;;;;;;7.83;7.13;;;;;;;23.84;67.76;96639.66;4995357;28;20165;-74
2021/06/12 07:12:00;;;;;;;7.00;6.60;;;;;;;23.90;67.75;96633.06;4994743;28;20174;-69
2021/06/12 07:14:26;;;;;;;7.20;6.57;;;;;;;23.98;67.80;96632.34;4994992;28;20189;-70
2021/06/12 07:16:51;;;;;;;7.57;7.00;;;;;;;23.97;66.46;96632.66;4976537;28;20405;-74
2021/06/12 07:19:17;;;;;;;7.20;6.60;;;;;;;24.09;67.25;96627.56;4992798;28;20802;-70
2021/06/12 07:21:42;;;;;;;6.33;5.97;;;;;;;24.19;66.75;96629.97;4978950;28;20186;-69
2021/06/12 07:24:08;;;;;;;6.83;6.33;;;;;;;24.33;66.14;96634.19;4975553;28;20194;-69
2021/06/12 07:26:33;;;;;;;6.93;6.43;;;;;;;24.52;66.16;96631.31;4975930;28;20220;-70
2021/06/12 07:28:59;;;;;;;6.90;6.40;;;;;;;24.63;66.58;96629.97;4975537;28;20166;-74
2021/06/12 07:31:24;;;;;;;6.30;5.90;;;;;;;24.74;66.58;96644.75;4975419;28;20280;-74
2021/06/12 07:33:50;;;;;;;6.40;5.97;;;;;;;24.76;65.31;96639.88;4989348;28;20205;-70
2021/06/12 07:36:15;;;;;;;6.00;5.50;;;;;;;24.82;64.71;96645.91;4994114;28;20526;-70
2021/06/12 07:38:40;;;;;;;6.97;5.50;;;;;;;24.90;64.25;96637.88;4977139;28;20197;-74
2021/06/12 07:41:06;;;;;;;5.50;5.10;;;;;;;24.98;63.92;96642.50;4994717;28;20184;-73
2021/06/12 07:43:31;;;;;;;5.20;4.80;;;;;;;24.92;62.30;96633.00;4989652;28;20202;-74
2021/06/12 07:45:57;;;;;;;5.53;5.13;;;;;;;25.14;62.69;96640.19;4975301;28;20529;-73
2021/06/12 07:48:22;;;;;;;6.00;5.57;;;;;;;25.30;62.92;96635.97;4975387;28;20217;-74
2021/06/12 07:50:48;;;;;;;5.77;5.27;;;;;;;25.30;63.78;96638.66;4975171;28;20170;-74
2021/06/12 07:53:13;;;;;;;5.23;4.73;;;;;;;25.36;61.43;96635.50;4974531;28;20220;-71
2021/06/12 07:55:39;;;;;;;5.33;4.80;;;;;;;25.40;61.20;96641.09;4974959;28;20198;-72
2021/06/12 07:58:04;;;;;;;5.20;4.90;;;;;;;25.51;61.95;96631.59;4977074;28;20581;-73
2021/06/12 08:00:30;;;;;;;5.20;4.57;;;;;;;25.55;60.26;96634.47;4994602;28;20178;-72
2021/06/12 08:02:55;;;;;;;4.53;4.20;;;;;;;25.44;59.11;96644.72;4993892;28;20267;-71
2021/06/12 08:05:21;;;;;;;5.20;4.90;;;;;;;25.44;59.17;96633.97;4994313;28;20220;-70
2021/06/12 08:07:47;;;;;;;4.97;4.57;;;;;;;25.51;59.95;96638.91;4994191;28;20197;-71
2021/06/12 08:10:13;;;;;;;5.10;4.70;;;;;;;25.61;60.04;96630.53;4994412;28;20182;-73
2021/06/12 08:12:40;;;;;;;6.73;4.73;;;;;;;25.72;58.60;96634.50;4992771;28;20169;-71
2021/06/12 08:15:07;;;;;;;4.80;4.50;;;;;;;25.78;59.75;96630.56;4981478;28;20217;-71
2021/06/12 08:17:32;;;;;;;4.70;4.30;;;;;;;26.00;60.62;96635.81;4986982;28;20571;-73
2021/06/12 08:19:58;;;;;;;4.93;4.33;;;;;;;26.17;57.29;96635.81;4975857;28;20520;-69
2021/06/12 08:22:23;;;;;;;4.80;4.50;;;;;;;26.26;57.02;96637.41;4993949;28;20215;-76
2021/06/12 08:24:49;;;;;;;4.70;4.40;;;;;;;26.38;56.20;96636.75;4993977;28;20228;-76
2021/06/12 08:27:15;;;;;;;4.93;4.53;;;;;;;26.45;56.71;96631.69;4994016;28;20647;-70
2021/06/12 08:29:43;;;;;;;4.23;3.93;;;;;;;26.34;57.54;96641.97;4994091;28;20170;-71
2021/06/12 08:32:09;;;;;;;4.60;4.30;;;;;;;26.30;57.92;96638.34;4991469;28;20768;-76
2021/06/12 08:34:35;;;;;;;4.23;3.93;;;;;;;26.25;53.95;96635.03;4989755;28;20456;-71
2021/06/12 08:37:02;;;;;;;3.93;3.60;;;;;;;26.28;55.62;96629.78;4990547;28;20832;-73
2021/06/12 08:39:27;;;;;;;4.60;4.30;;;;;;;26.06;55.29;96635.34;4990369;28;20936;-75
2021/06/12 08:41:53;;;;;;;4.37;4.10;;;;;;;26.04;54.21;96645.66;4990139;28;20432;-74
2021/06/12 08:44:23;;;;;;;5.30;4.90;;;;;;;25.98;52.93;96638.78;4990131;28;20249;-73
2021/06/12 08:46:48;;;;;;;3.87;3.57;;;;;;;26.21;55.04;96640.28;4990490;28;20177;-74
2021/06/12 08:49:15;;;;;;;4.40;4.10;;;;;;;26.28;54.10;96637.88;4987293;28;20827;-72
2021/06/12 08:51:41;;;;;;;4.63;4.23;;;;;;;26.44;53.98;96638.97;4970632;28;20194;-74
2021/06/12 08:54:07;;;;;;;5.23;3.67;;;;;;;26.53;52.86;96638.13;4970829;28;20473;-71
2021/06/12 08:56:32;;;;;;;3.90;3.70;;;;;;;26.70;53.41;96643.53;4973234;28;20260;-72
2021/06/12 08:58:58;;;;;;;4.10;3.80;;;;;;;26.65;51.82;96639.06;4974327;28;20213;-74
2021/06/12 09:01:23;;;;;;;4.07;3.70;;;;;;;26.84;52.01;96633.34;4974454;28;20179;-73
2021/06/12 09:03:49;;;;;;;6.60;6.10;;;;;;;27.09;57.85;96629.75;4960516;28;20597;-74
2021/06/12 09:06:21;;;;;;;6.90;6.40;;;;;;;27.33;59.50;96638.09;4997348;28;20240;-70
2021/06/12 09:08:47;;;;;;;7.10;6.40;;;;;;;27.57;59.95;96640.19;4987722;28;20182;-73
2021/06/12 09:11:16;;;;;;;6.83;6.37;;;;;;;27.63;58.34;96639.66;4978083;28;20418;-70
2021/06/12 09:13:41;;;;;;;5.27;4.97;;;;;;;27.65;57.63;96637.41;4977512;28;20198;-70
2021/06/12 09:16:20;;;;;;;4.80;4.40;;;;;;;27.57;57.40;96648.28;4978014;28;20417;-74
2021/06/12 09:18:46;;;;;;;3.83;3.50;;;;;;;27.42;55.19;96647.72;4977775;28;20202;-74
2021/06/12 09:21:22;;;;;;;3.23;2.93;;;;;;;27.45;55.49;96642.81;4977830;28;20420;-72
2021/06/12 09:23:48;;;;;;;3.70;3.40;;;;;;;27.52;54.31;96649.25;4981921;28;20200;-72
2021/06/12 09:26:13;;;;;;;9.73;3.70;;;;;;;27.64;56.71;96652.06;4991495;28;20422;-73
2021/06/12 09:28:51;;;;;;;3.30;3.10;;;;;;;27.61;54.87;96657.31;4977863;28;20625;-72
2021/06/12 09:31:27;;;;;;;3.80;3.50;;;;;;;27.63;55.64;96660.50;4977622;28;20167;-73
2021/06/12 09:33:55;;;;;;;2.80;2.60;;;;;;;27.58;56.08;96653.34;4990031;28;20452;-72
2021/06/12 09:36:42;;;;;;;3.50;2.80;;;;;;;27.64;56.20;96657.47;4988469;28;20431;-70
2021/06/12 09:39:15;;;;;;;2.47;2.33;;;;;;;27.63;53.21;96649.69;4996932;28;20510;-72
2021/06/12 09:41:46;;;;;;;3.00;2.80;;;;;;;27.74;54.83;96654.34;4965284;28;20449;-72
2021/06/12 09:44:27;;;;;;;5.53;2.90;;;;;;;27.79;54.91;96648.78;4960239;28;20449;-71
2021/06/12 09:46:52;;;;;;;4.20;3.07;;;;;;;27.94;54.60;96650.13;4979345;28;20455;-69
2021/06/12 09:49:38;;;;;;;2.73;2.53;;;;;;;28.11;53.78;96645.38;4996622;28;20944;-70
2021/06/12 09:52:10;;;;;;;2.97;2.77;;;;;;;28.23;52.65;96645.44;4978678;28;20189;-69
2021/06/12 09:54:45;;;;;;;3.23;2.90;;;;;;;28.05;52.80;96649.41;4996425;28;20514;-62
2021/06/12 09:57:14;;;;;;;2.83;2.60;;;;;;;28.00;53.08;96646.09;4996278;28;20396;-65
2021/06/12 09:59:56;;;;;;;3.40;3.10;;;;;;;27.90;53.09;96646.47;4991316;28;20472;-64
2021/06/12 10:02:38;;;;;;;2.90;2.70;;;;;;;27.41;52.72;96642.66;4996232;28;20911;-69
2021/06/12 10:05:06;;;;;;;2.87;2.43;;;;;;;27.40;53.31;96643.75;4996563;28;20408;-61
2021/06/12 10:07:32;;;;;;;3.17;2.93;;;;;;;27.47;52.91;96644.03;4996560;28;20424;-67
2021/06/12 10:10:00;;;;;;;3.00;2.80;;;;;;;27.38;51.25;96646.78;4988359;28;20472;-68
2021/06/12 10:12:26;;;;;;;3.27;3.07;;;;;;;27.28;52.91;96644.44;4978485;28;20848;-71
2021/06/12 10:14:52;;;;;;;2.63;2.53;;;;;;;27.54;52.88;96636.22;4981885;28;20484;-70
2021/06/12 10:17:20;;;;;;;4.53;2.77;;;;;;;27.75;54.49;96638.94;4995027;28;20205;-69
2021/06/12 10:19:50;;;;;;;3.60;3.00;;;;;;;27.79;52.42;96643.38;4996454;28;20248;-72
2021/06/12 10:22:16;;;;;;;2.90;2.70;;;;;;;27.72;51.87;96634.97;4995788;28;20504;-73
2021/06/12 10:24:42;;;;;;;3.00;2.80;;;;;;;28.06;52.39;96644.78;4996239;28;20443;-74
2021/06/12 10:27:08;;;;;;;2.70;2.50;;;;;;;28.08;51.86;96645.25;4996101;28;20421;-71
2021/06/12 10:29:34;;;;;;;3.70;3.03;;;;;;;28.09;49.04;96646.81;4996228;28;20636;-71
2021/06/12 10:32:01;;;;;;;3.70;3.40;;;;;;;27.89;48.33;96645.69;4989172;28;20425;-74
2021/06/12 10:34:28;;;;;;;3.30;3.10;;;;;;;27.83;50.18;96648.91;4995593;28;20440;-70
2021/06/12 10:37:06;;;;;;;4.07;3.13;;;;;;;27.89;48.99;96647.59;4995208;28;20424;-71
2021/06/12 10:39:36;;;;;;;3.00;2.80;;;;;;;28.04;48.39;96645.13;4978204;28;20830;-75
2021/06/12 10:42:10;;;;;;;3.10;2.90;;;;;;;28.15;47.88;96635.50;4995426;28;20413;-75
2021/06/12 10:44:36;;;;;;;3.23;2.93;;;;;;;28.10;49.12;96645.72;4995442;28;20440;-71
2021/06/12 10:47:02;;;;;;;3.33;3.03;;;;;;;27.99;47.25;96648.00;4995656;28;20481;-70
2021/06/12 10:49:28;;;;;;;7.80;3.00;;;;;;;27.78;48.51;96640.97;4994889;28;20405;-72
2021/06/12 10:51:54;;;;;;;3.43;3.23;;;;;;;27.63;48.01;96630.78;4993374;28;20174;-73
2021/06/12 10:54:23;;;;;;;2.77;2.63;;;;;;;27.76;49.86;96637.81;4995329;28;20431;-74
2021/06/12 10:56:51;;;;;;;2.93;2.70;;;;;;;27.82;49.44;96631.91;4995303;28;20180;-71
2021/06/12 10:59:32;;;;;;;3.00;2.80;;;;;;;28.07;51.17;96624.75;4995353;28;20515;-71
2021/06/12 11:02:05;;;;;;;3.60;3.30;;;;;;;28.19;49.71;96620.19;4994899;28;20417;-75
2021/06/12 11:04:40;;;;;;;4.10;3.80;;;;;;;28.07;48.97;96625.53;4992425;28;22303;-71
2021/06/12 11:07:24;;;;;;;3.10;2.90;;;;;;;28.17;47.72;96617.00;4976289;28;20433;-73
2021/06/12 11:09:49;;;;;;;2.93;2.73;;;;;;;28.32;48.47;96612.91;4991112;28;20487;-75
2021/06/12 11:12:15;;;;;;;7.43;3.50;;;;;;;28.43;47.43;96609.47;4990553;28;20416;-75
2021/06/12 11:14:53;;;;;;;3.73;3.37;;;;;;;28.61;46.86;96610.09;4991995;28;20197;-74
2021/06/12 11:17:19;;;;;;;2.80;2.60;;;;;;;28.78;46.86;96614.53;4991257;28;20260;-70
2021/06/12 11:19:50;;;;;;;3.10;2.90;;;;;;;28.60;46.08;96619.34;4991811;28;20555;-75
2021/06/12 11:22:56;;;;;;;3.23;3.03;;;;;;;28.34;47.72;96610.66;4991682;28;20223;-71
2021/06/12 11:25:23;;;;;;;2.90;2.70;;;;;;;28.30;48.45;96605.13;4985420;28;20455;-71